sensor_id;sensor_type;location;lat;lon;timestamp;P1;durP1;ratioP1;P2;durP2;ratioP2
18435;SDS011;9346;52.006;4.720;2023-04-01T00:02:12;21.80;;;10.33;;
18435;SDS011;9346;52.006;4.720;2023-04-01T00:04:39;28.23;;;10.27;;
18435;SDS011;9346;52.006;4.720;2023-04-01T00:07:06;30.10;;;10.23;;
18435;SDS011;9346;52.006;4.720;2023-04-01T00:09:33;28.67;;;10.27;;
18435;SDS011;9346;52.006;4.720;2023-04-01T00:12:02;22.57;;;11.37;;
18435;SDS011;9346;52.006;4.720;2023-04-01T00:14:30;30.90;;;11.20;;
18435;SDS011;9346;52.006;4.720;2023-04-01T00:16:57;41.30;;;11.47;;
18435;SDS011;9346;52.006;4.720;2023-04-01T00:19:24;23.27;;;12.10;;
18435;SDS011;9346;52.006;4.720;2023-04-01T00:21:51;25.47;;;9.40;;
18435;SDS011;9346;52.006;4.720;2023-04-01T00:24:18;22.93;;;9.97;;
18435;SDS011;9346;52.006;4.720;2023-04-01T00:26:45;29.40;;;10.00;;
18435;SDS011;9346;52.006;4.720;2023-04-01T00:29:14;18.17;;;7.87;;
18435;SDS011;9346;52.006;4.720;2023-04-01T00:31:41;18.53;;;8.07;;
18435;SDS011;9346;52.006;4.720;2023-04-01T00:34:08;23.77;;;8.93;;
18435;SDS011;9346;52.006;4.720;2023-04-01T00:36:35;24.80;;;9.33;;
18435;SDS011;9346;52.006;4.720;2023-04-01T00:39:02;23.63;;;8.93;;
18435;SDS011;9346;52.006;4.720;2023-04-01T00:41:29;23.77;;;8.07;;
18435;SDS011;9346;52.006;4.720;2023-04-01T00:46:42;20.90;;;8.83;;
18435;SDS011;9346;52.006;4.720;2023-04-01T00:49:09;21.50;;;8.47;;
18435;SDS011;9346;52.006;4.720;2023-04-01T00:51:36;18.77;;;8.40;;
18435;SDS011;9346;52.006;4.720;2023-04-01T00:54:05;22.80;;;8.97;;
18435;SDS011;9346;52.006;4.720;2023-04-01T00:56:34;18.07;;;7.37;;
18435;SDS011;9346;52.006;4.720;2023-04-01T00:59:05;26.90;;;7.53;;
18435;SDS011;9346;52.006;4.720;2023-04-01T01:01:36;15.27;;;8.27;;
18435;SDS011;9346;52.006;4.720;2023-04-01T01:04:06;27.40;;;9.20;;
18435;SDS011;9346;52.006;4.720;2023-04-01T01:06:43;19.53;;;7.93;;
18435;SDS011;9346;52.006;4.720;2023-04-01T01:09:25;26.67;;;9.97;;
18435;SDS011;9346;52.006;4.720;2023-04-01T01:12:00;25.27;;;9.63;;
18435;SDS011;9346;52.006;4.720;2023-04-01T01:14:38;24.07;;;9.00;;
18435;SDS011;9346;52.006;4.720;2023-04-01T01:17:33;22.93;;;9.47;;
18435;SDS011;9346;52.006;4.720;2023-04-01T01:20:18;30.00;;;9.97;;
18435;SDS011;9346;52.006;4.720;2023-04-01T01:23:09;22.80;;;9.20;;
18435;SDS011;9346;52.006;4.720;2023-04-01T01:25:56;23.10;;;8.50;;
18435;SDS011;9346;52.006;4.720;2023-04-01T01:28:37;26.63;;;8.53;;
18435;SDS011;9346;52.006;4.720;2023-04-01T01:31:17;26.60;;;8.80;;
18435;SDS011;9346;52.006;4.720;2023-04-01T01:34:01;19.47;;;8.43;;
18435;SDS011;9346;52.006;4.720;2023-04-01T01:36:41;21.53;;;8.40;;
18435;SDS011;9346;52.006;4.720;2023-04-01T01:39:11;23.20;;;8.00;;
18435;SDS011;9346;52.006;4.720;2023-04-01T01:41:41;20.93;;;7.37;;
18435;SDS011;9346;52.006;4.720;2023-04-01T01:44:11;21.80;;;8.20;;
18435;SDS011;9346;52.006;4.720;2023-04-01T01:46:40;22.03;;;8.67;;
18435;SDS011;9346;52.006;4.720;2023-04-01T01:49:09;21.77;;;6.80;;
18435;SDS011;9346;52.006;4.720;2023-04-01T01:51:38;15.37;;;6.23;;
18435;SDS011;9346;52.006;4.720;2023-04-01T01:54:07;14.83;;;5.50;;
18435;SDS011;9346;52.006;4.720;2023-04-01T01:56:38;14.00;;;5.57;;
18435;SDS011;9346;52.006;4.720;2023-04-01T01:59:08;11.93;;;5.13;;
18435;SDS011;9346;52.006;4.720;2023-04-01T02:01:39;11.63;;;4.70;;
18435;SDS011;9346;52.006;4.720;2023-04-01T02:04:09;15.07;;;4.90;;
18435;SDS011;9346;52.006;4.720;2023-04-01T02:06:38;14.83;;;5.67;;
18435;SDS011;9346;52.006;4.720;2023-04-01T02:09:10;20.50;;;5.80;;
18435;SDS011;9346;52.006;4.720;2023-04-01T02:11:38;17.33;;;5.77;;
18435;SDS011;9346;52.006;4.720;2023-04-01T02:14:11;15.83;;;5.97;;
18435;SDS011;9346;52.006;4.720;2023-04-01T02:16:43;16.97;;;6.90;;
18435;SDS011;9346;52.006;4.720;2023-04-01T02:19:15;17.73;;;5.47;;
18435;SDS011;9346;52.006;4.720;2023-04-01T02:21:47;17.07;;;5.97;;
18435;SDS011;9346;52.006;4.720;2023-04-01T02:24:18;16.10;;;6.27;;
18435;SDS011;9346;52.006;4.720;2023-04-01T02:26:49;16.90;;;6.33;;
18435;SDS011;9346;52.006;4.720;2023-04-01T02:29:18;12.47;;;5.37;;
18435;SDS011;9346;52.006;4.720;2023-04-01T02:31:47;15.70;;;5.53;;
18435;SDS011;9346;52.006;4.720;2023-04-01T02:34:15;17.73;;;5.77;;
18435;SDS011;9346;52.006;4.720;2023-04-01T02:36:42;15.93;;;6.07;;
18435;SDS011;9346;52.006;4.720;2023-04-01T02:39:10;14.43;;;5.73;;
18435;SDS011;9346;52.006;4.720;2023-04-01T02:41:42;22.77;;;5.73;;
18435;SDS011;9346;52.006;4.720;2023-04-01T02:44:10;16.37;;;5.83;;
18435;SDS011;9346;52.006;4.720;2023-04-01T02:46:39;11.27;;;4.83;;
18435;SDS011;9346;52.006;4.720;2023-04-01T02:49:06;12.40;;;6.20;;
18435;SDS011;9346;52.006;4.720;2023-04-01T02:51:33;9.73;;;4.80;;
18435;SDS011;9346;52.006;4.720;2023-04-01T02:54:00;12.83;;;5.10;;
18435;SDS011;9346;52.006;4.720;2023-04-01T02:56:28;15.60;;;5.60;;
18435;SDS011;9346;52.006;4.720;2023-04-01T02:58:56;11.40;;;5.80;;
18435;SDS011;9346;52.006;4.720;2023-04-01T03:01:23;12.03;;;4.83;;
18435;SDS011;9346;52.006;4.720;2023-04-01T03:03:50;19.77;;;6.77;;
18435;SDS011;9346;52.006;4.720;2023-04-01T03:06:17;12.27;;;5.70;;
18435;SDS011;9346;52.006;4.720;2023-04-01T03:08:44;16.40;;;6.80;;
18435;SDS011;9346;52.006;4.720;2023-04-01T03:11:11;23.00;;;6.13;;
18435;SDS011;9346;52.006;4.720;2023-04-01T03:13:38;16.30;;;7.30;;
18435;SDS011;9346;52.006;4.720;2023-04-01T03:16:07;23.87;;;9.60;;
18435;SDS011;9346;52.006;4.720;2023-04-01T03:18:34;17.67;;;10.10;;
18435;SDS011;9346;52.006;4.720;2023-04-01T03:21:12;24.13;;;9.20;;
18435;SDS011;9346;52.006;4.720;2023-04-01T03:23:40;25.20;;;9.87;;
18435;SDS011;9346;52.006;4.720;2023-04-01T03:26:07;32.67;;;11.07;;
18435;SDS011;9346;52.006;4.720;2023-04-01T03:28:34;25.27;;;11.47;;
18435;SDS011;9346;52.006;4.720;2023-04-01T03:31:00;26.63;;;11.30;;
18435;SDS011;9346;52.006;4.720;2023-04-01T03:33:29;27.80;;;11.40;;
18435;SDS011;9346;52.006;4.720;2023-04-01T03:35:56;20.13;;;9.97;;
18435;SDS011;9346;52.006;4.720;2023-04-01T03:38:23;24.27;;;10.57;;
18435;SDS011;9346;52.006;4.720;2023-04-01T03:40:50;28.33;;;9.57;;
18435;SDS011;9346;52.006;4.720;2023-04-01T03:43:17;23.53;;;9.03;;
18435;SDS011;9346;52.006;4.720;2023-04-01T03:45:44;23.73;;;9.13;;
18435;SDS011;9346;52.006;4.720;2023-04-01T03:48:11;16.00;;;6.47;;
18435;SDS011;9346;52.006;4.720;2023-04-01T03:50:39;15.60;;;6.17;;
18435;SDS011;9346;52.006;4.720;2023-04-01T03:53:07;17.70;;;6.90;;
18435;SDS011;9346;52.006;4.720;2023-04-01T03:55:35;18.47;;;6.87;;
18435;SDS011;9346;52.006;4.720;2023-04-01T03:58:02;14.50;;;6.33;;
18435;SDS011;9346;52.006;4.720;2023-04-01T04:00:29;20.00;;;7.87;;
18435;SDS011;9346;52.006;4.720;2023-04-01T04:02:57;25.07;;;7.73;;
18435;SDS011;9346;52.006;4.720;2023-04-01T04:05:24;17.93;;;6.80;;
18435;SDS011;9346;52.006;4.720;2023-04-01T04:07:53;16.90;;;7.73;;
18435;SDS011;9346;52.006;4.720;2023-04-01T04:10:20;16.03;;;6.97;;
18435;SDS011;9346;52.006;4.720;2023-04-01T04:12:48;14.07;;;6.80;;
18435;SDS011;9346;52.006;4.720;2023-04-01T04:15:16;14.90;;;6.67;;
18435;SDS011;9346;52.006;4.720;2023-04-01T04:17:43;18.93;;;7.37;;
18435;SDS011;9346;52.006;4.720;2023-04-01T04:20:10;23.43;;;8.00;;
18435;SDS011;9346;52.006;4.720;2023-04-01T04:22:37;15.10;;;7.90;;
18435;SDS011;9346;52.006;4.720;2023-04-01T04:25:07;14.23;;;6.13;;
18435;SDS011;9346;52.006;4.720;2023-04-01T04:27:34;17.80;;;7.20;;
18435;SDS011;9346;52.006;4.720;2023-04-01T04:30:02;17.27;;;8.43;;
18435;SDS011;9346;52.006;4.720;2023-04-01T04:32:29;21.73;;;7.70;;
18435;SDS011;9346;52.006;4.720;2023-04-01T04:34:56;18.37;;;8.53;;
18435;SDS011;9346;52.006;4.720;2023-04-01T04:37:23;22.10;;;8.43;;
18435;SDS011;9346;52.006;4.720;2023-04-01T04:39:50;21.37;;;9.33;;
18435;SDS011;9346;52.006;4.720;2023-04-01T04:42:19;19.17;;;7.70;;
18435;SDS011;9346;52.006;4.720;2023-04-01T04:44:46;16.27;;;8.10;;
18435;SDS011;9346;52.006;4.720;2023-04-01T04:47:13;18.97;;;8.20;;
18435;SDS011;9346;52.006;4.720;2023-04-01T04:49:40;17.53;;;7.83;;
18435;SDS011;9346;52.006;4.720;2023-04-01T04:52:07;15.87;;;6.50;;
18435;SDS011;9346;52.006;4.720;2023-04-01T04:54:34;20.67;;;7.70;;
18435;SDS011;9346;52.006;4.720;2023-04-01T04:57:01;16.57;;;8.50;;
18435;SDS011;9346;52.006;4.720;2023-04-01T04:59:29;19.70;;;8.57;;
18435;SDS011;9346;52.006;4.720;2023-04-01T05:01:56;19.67;;;8.30;;
18435;SDS011;9346;52.006;4.720;2023-04-01T05:04:23;22.93;;;8.63;;
18435;SDS011;9346;52.006;4.720;2023-04-01T05:06:50;17.90;;;8.37;;
18435;SDS011;9346;52.006;4.720;2023-04-01T05:09:18;27.67;;;10.20;;
18435;SDS011;9346;52.006;4.720;2023-04-01T05:11:45;23.97;;;9.73;;
18435;SDS011;9346;52.006;4.720;2023-04-01T05:14:13;19.10;;;9.70;;
18435;SDS011;9346;52.006;4.720;2023-04-01T05:16:42;24.97;;;11.53;;
18435;SDS011;9346;52.006;4.720;2023-04-01T05:19:09;25.00;;;11.00;;
18435;SDS011;9346;52.006;4.720;2023-04-01T05:21:36;23.13;;;10.70;;
18435;SDS011;9346;52.006;4.720;2023-04-01T05:24:03;24.77;;;10.27;;
18435;SDS011;9346;52.006;4.720;2023-04-01T05:26:33;23.80;;;9.17;;
18435;SDS011;9346;52.006;4.720;2023-04-01T05:29:01;28.87;;;10.17;;
18435;SDS011;9346;52.006;4.720;2023-04-01T05:31:28;21.83;;;8.20;;
18435;SDS011;9346;52.006;4.720;2023-04-01T05:33:57;22.53;;;8.30;;
18435;SDS011;9346;52.006;4.720;2023-04-01T05:36:24;23.03;;;8.90;;
18435;SDS011;9346;52.006;4.720;2023-04-01T05:38:54;18.67;;;7.87;;
18435;SDS011;9346;52.006;4.720;2023-04-01T05:41:21;17.10;;;7.70;;
18435;SDS011;9346;52.006;4.720;2023-04-01T05:43:47;18.10;;;7.80;;
18435;SDS011;9346;52.006;4.720;2023-04-01T05:46:15;19.57;;;8.53;;
18435;SDS011;9346;52.006;4.720;2023-04-01T05:48:41;19.33;;;8.00;;
18435;SDS011;9346;52.006;4.720;2023-04-01T05:51:12;26.77;;;10.20;;
18435;SDS011;9346;52.006;4.720;2023-04-01T05:53:40;19.77;;;9.43;;
18435;SDS011;9346;52.006;4.720;2023-04-01T05:56:07;23.57;;;8.87;;
18435;SDS011;9346;52.006;4.720;2023-04-01T05:58:35;21.70;;;8.17;;
18435;SDS011;9346;52.006;4.720;2023-04-01T06:01:02;20.10;;;9.00;;
18435;SDS011;9346;52.006;4.720;2023-04-01T06:03:30;22.40;;;8.20;;
18435;SDS011;9346;52.006;4.720;2023-04-01T06:05:57;26.23;;;9.47;;
18435;SDS011;9346;52.006;4.720;2023-04-01T06:08:27;25.07;;;8.77;;
18435;SDS011;9346;52.006;4.720;2023-04-01T06:11:03;24.90;;;7.80;;
18435;SDS011;9346;52.006;4.720;2023-04-01T06:16:32;20.87;;;8.13;;
18435;SDS011;9346;52.006;4.720;2023-04-01T06:19:17;19.63;;;7.80;;
18435;SDS011;9346;52.006;4.720;2023-04-01T06:21:56;21.33;;;7.50;;
18435;SDS011;9346;52.006;4.720;2023-04-01T06:24:45;19.87;;;8.50;;
18435;SDS011;9346;52.006;4.720;2023-04-01T06:27:26;24.23;;;8.30;;
18435;SDS011;9346;52.006;4.720;2023-04-01T06:30:10;25.83;;;9.13;;
18435;SDS011;9346;52.006;4.720;2023-04-01T06:32:54;26.70;;;10.50;;
18435;SDS011;9346;52.006;4.720;2023-04-01T06:35:31;30.47;;;10.13;;
18435;SDS011;9346;52.006;4.720;2023-04-01T06:38:15;30.03;;;10.93;;
18435;SDS011;9346;52.006;4.720;2023-04-01T06:40:54;26.93;;;12.83;;
18435;SDS011;9346;52.006;4.720;2023-04-01T06:43:43;28.33;;;12.43;;
18435;SDS011;9346;52.006;4.720;2023-04-01T06:46:20;28.70;;;12.57;;
18435;SDS011;9346;52.006;4.720;2023-04-01T06:49:05;26.33;;;11.93;;
18435;SDS011;9346;52.006;4.720;2023-04-01T06:51:42;32.60;;;13.03;;
18435;SDS011;9346;52.006;4.720;2023-04-01T06:54:20;26.70;;;13.70;;
18435;SDS011;9346;52.006;4.720;2023-04-01T06:56:53;35.73;;;14.67;;
18435;SDS011;9346;52.006;4.720;2023-04-01T06:59:25;32.63;;;14.60;;
18435;SDS011;9346;52.006;4.720;2023-04-01T07:01:55;26.00;;;11.57;;
18435;SDS011;9346;52.006;4.720;2023-04-01T07:04:26;37.90;;;13.53;;
18435;SDS011;9346;52.006;4.720;2023-04-01T07:06:57;31.57;;;13.50;;
18435;SDS011;9346;52.006;4.720;2023-04-01T07:09:27;28.23;;;11.90;;
18435;SDS011;9346;52.006;4.720;2023-04-01T07:12:02;26.90;;;13.17;;
18435;SDS011;9346;52.006;4.720;2023-04-01T07:14:41;37.70;;;12.07;;
18435;SDS011;9346;52.006;4.720;2023-04-01T07:17:11;28.53;;;10.70;;
18435;SDS011;9346;52.006;4.720;2023-04-01T07:19:44;28.83;;;11.83;;
18435;SDS011;9346;52.006;4.720;2023-04-01T07:22:17;26.03;;;12.60;;
18435;SDS011;9346;52.006;4.720;2023-04-01T07:24:53;30.20;;;11.97;;
18435;SDS011;9346;52.006;4.720;2023-04-01T07:27:24;30.37;;;12.47;;
18435;SDS011;9346;52.006;4.720;2023-04-01T07:29:51;30.60;;;12.00;;
18435;SDS011;9346;52.006;4.720;2023-04-01T07:32:23;27.60;;;12.73;;
18435;SDS011;9346;52.006;4.720;2023-04-01T07:35:03;25.63;;;11.97;;
18435;SDS011;9346;52.006;4.720;2023-04-01T07:37:38;24.63;;;11.40;;
18435;SDS011;9346;52.006;4.720;2023-04-01T07:40:15;32.53;;;12.33;;
18435;SDS011;9346;52.006;4.720;2023-04-01T07:42:55;22.20;;;10.73;;
18435;SDS011;9346;52.006;4.720;2023-04-01T07:45:33;24.87;;;10.63;;
18435;SDS011;9346;52.006;4.720;2023-04-01T07:48:09;25.17;;;10.60;;
18435;SDS011;9346;52.006;4.720;2023-04-01T07:50:46;19.03;;;10.90;;
18435;SDS011;9346;52.006;4.720;2023-04-01T07:53:23;31.00;;;11.33;;
18435;SDS011;9346;52.006;4.720;2023-04-01T07:55:55;22.50;;;9.20;;
18435;SDS011;9346;52.006;4.720;2023-04-01T07:58:33;21.10;;;10.27;;
18435;SDS011;9346;52.006;4.720;2023-04-01T08:01:10;31.60;;;10.33;;
18435;SDS011;9346;52.006;4.720;2023-04-01T08:03:49;21.47;;;8.57;;
18435;SDS011;9346;52.006;4.720;2023-04-01T08:06:31;25.60;;;9.77;;
18435;SDS011;9346;52.006;4.720;2023-04-01T08:09:05;24.43;;;10.50;;
18435;SDS011;9346;52.006;4.720;2023-04-01T08:11:41;25.97;;;9.70;;
18435;SDS011;9346;52.006;4.720;2023-04-01T08:14:21;20.50;;;8.83;;
18435;SDS011;9346;52.006;4.720;2023-04-01T08:16:57;23.93;;;9.37;;
18435;SDS011;9346;52.006;4.720;2023-04-01T08:19:31;21.03;;;8.93;;
18435;SDS011;9346;52.006;4.720;2023-04-01T08:22:14;26.07;;;8.50;;
18435;SDS011;9346;52.006;4.720;2023-04-01T08:24:46;25.27;;;9.37;;
18435;SDS011;9346;52.006;4.720;2023-04-01T08:27:16;21.00;;;8.30;;
18435;SDS011;9346;52.006;4.720;2023-04-01T08:29:50;19.47;;;7.63;;
18435;SDS011;9346;52.006;4.720;2023-04-01T08:32:23;27.23;;;9.63;;
18435;SDS011;9346;52.006;4.720;2023-04-01T08:34:58;30.37;;;9.60;;
18435;SDS011;9346;52.006;4.720;2023-04-01T08:37:36;23.23;;;8.60;;
18435;SDS011;9346;52.006;4.720;2023-04-01T08:40:13;18.70;;;7.70;;
18435;SDS011;9346;52.006;4.720;2023-04-01T08:42:59;21.03;;;8.97;;
18435;SDS011;9346;52.006;4.720;2023-04-01T08:45:40;21.50;;;8.53;;
18435;SDS011;9346;52.006;4.720;2023-04-01T08:48:23;21.73;;;8.33;;
18435;SDS011;9346;52.006;4.720;2023-04-01T08:51:06;18.13;;;7.57;;
18435;SDS011;9346;52.006;4.720;2023-04-01T08:56:41;23.00;;;8.53;;
18435;SDS011;9346;52.006;4.720;2023-04-01T08:59:27;24.30;;;9.03;;
18435;SDS011;9346;52.006;4.720;2023-04-01T09:02:29;18.53;;;8.10;;
18435;SDS011;9346;52.006;4.720;2023-04-01T09:05:20;28.90;;;9.43;;
18435;SDS011;9346;52.006;4.720;2023-04-01T09:07:58;25.13;;;8.73;;
18435;SDS011;9346;52.006;4.720;2023-04-01T09:13:31;20.77;;;7.63;;
18435;SDS011;9346;52.006;4.720;2023-04-01T09:16:13;18.50;;;7.83;;
18435;SDS011;9346;52.006;4.720;2023-04-01T09:21:50;16.93;;;7.03;;
18435;SDS011;9346;52.006;4.720;2023-04-01T09:27:34;20.17;;;6.93;;
18435;SDS011;9346;52.006;4.720;2023-04-01T09:30:22;15.03;;;6.40;;
18435;SDS011;9346;52.006;4.720;2023-04-01T09:36:16;18.30;;;6.93;;
18435;SDS011;9346;52.006;4.720;2023-04-01T09:38:54;22.97;;;8.40;;
18435;SDS011;9346;52.006;4.720;2023-04-01T09:41:28;25.83;;;8.10;;
18435;SDS011;9346;52.006;4.720;2023-04-01T09:44:03;30.70;;;8.37;;
18435;SDS011;9346;52.006;4.720;2023-04-01T09:49:31;23.63;;;9.70;;
18435;SDS011;9346;52.006;4.720;2023-04-01T09:52:29;24.70;;;8.50;;
18435;SDS011;9346;52.006;4.720;2023-04-01T09:55:06;19.67;;;6.53;;
18435;SDS011;9346;52.006;4.720;2023-04-01T09:57:56;19.80;;;6.67;;
18435;SDS011;9346;52.006;4.720;2023-04-01T10:00:46;14.57;;;5.27;;
18435;SDS011;9346;52.006;4.720;2023-04-01T10:06:47;8.47;;;4.47;;
18435;SDS011;9346;52.006;4.720;2023-04-01T10:12:36;13.53;;;4.90;;
18435;SDS011;9346;52.006;4.720;2023-04-01T10:15:36;11.33;;;4.20;;
18435;SDS011;9346;52.006;4.720;2023-04-01T10:18:46;11.87;;;5.07;;
18435;SDS011;9346;52.006;4.720;2023-04-01T10:27:49;12.03;;;4.80;;
18435;SDS011;9346;52.006;4.720;2023-04-01T10:33:38;17.57;;;6.93;;
18435;SDS011;9346;52.006;4.720;2023-04-01T10:36:33;13.10;;;6.77;;
18435;SDS011;9346;52.006;4.720;2023-04-01T10:51:25;15.13;;;6.80;;
18435;SDS011;9346;52.006;4.720;2023-04-01T10:54:20;19.60;;;6.30;;
18435;SDS011;9346;52.006;4.720;2023-04-01T10:57:10;18.57;;;7.80;;
18435;SDS011;9346;52.006;4.720;2023-04-01T11:03:01;14.10;;;6.80;;
18435;SDS011;9346;52.006;4.720;2023-04-01T11:15:29;17.43;;;6.63;;
18435;SDS011;9346;52.006;4.720;2023-04-01T11:18:15;16.30;;;7.07;;
18435;SDS011;9346;52.006;4.720;2023-04-01T11:21:12;10.60;;;5.07;;
18435;SDS011;9346;52.006;4.720;2023-04-01T11:24:11;10.03;;;4.80;;
18435;SDS011;9346;52.006;4.720;2023-04-01T11:26:51;7.43;;;4.30;;
18435;SDS011;9346;52.006;4.720;2023-04-01T11:29:35;14.40;;;6.87;;
18435;SDS011;9346;52.006;4.720;2023-04-01T11:32:19;11.13;;;5.17;;
18435;SDS011;9346;52.006;4.720;2023-04-01T11:35:00;12.77;;;5.40;;
18435;SDS011;9346;52.006;4.720;2023-04-01T11:37:41;12.90;;;4.67;;
18435;SDS011;9346;52.006;4.720;2023-04-01T11:40:22;14.57;;;6.23;;
18435;SDS011;9346;52.006;4.720;2023-04-01T11:43:00;18.13;;;6.10;;
18435;SDS011;9346;52.006;4.720;2023-04-01T11:45:35;23.00;;;6.83;;
18435;SDS011;9346;52.006;4.720;2023-04-01T11:48:12;22.60;;;7.53;;
18435;SDS011;9346;52.006;4.720;2023-04-01T11:53:52;15.57;;;6.43;;
18435;SDS011;9346;52.006;4.720;2023-04-01T11:56:42;15.97;;;6.40;;
18435;SDS011;9346;52.006;4.720;2023-04-01T12:02:29;14.73;;;6.00;;
18435;SDS011;9346;52.006;4.720;2023-04-01T12:08:12;13.77;;;6.57;;
18435;SDS011;9346;52.006;4.720;2023-04-01T12:11:03;13.57;;;6.50;;
18435;SDS011;9346;52.006;4.720;2023-04-01T12:13:42;13.23;;;5.53;;
18435;SDS011;9346;52.006;4.720;2023-04-01T12:16:25;11.67;;;6.17;;
18435;SDS011;9346;52.006;4.720;2023-04-01T12:19:08;12.00;;;6.60;;
18435;SDS011;9346;52.006;4.720;2023-04-01T12:21:45;12.43;;;6.43;;
18435;SDS011;9346;52.006;4.720;2023-04-01T12:27:22;19.23;;;7.33;;
18435;SDS011;9346;52.006;4.720;2023-04-01T12:33:00;17.03;;;7.00;;
18435;SDS011;9346;52.006;4.720;2023-04-01T12:35:46;14.07;;;6.70;;
18435;SDS011;9346;52.006;4.720;2023-04-01T12:38:23;19.53;;;9.30;;
18435;SDS011;9346;52.006;4.720;2023-04-01T12:41:03;11.87;;;7.43;;
18435;SDS011;9346;52.006;4.720;2023-04-01T12:47:00;14.10;;;7.77;;
18435;SDS011;9346;52.006;4.720;2023-04-01T12:49:50;14.23;;;7.60;;
18435;SDS011;9346;52.006;4.720;2023-04-01T12:52:25;18.03;;;8.20;;
18435;SDS011;9346;52.006;4.720;2023-04-01T12:55:08;18.10;;;9.67;;
18435;SDS011;9346;52.006;4.720;2023-04-01T13:00:58;16.73;;;8.17;;
18435;SDS011;9346;52.006;4.720;2023-04-01T13:03:40;18.00;;;8.67;;
18435;SDS011;9346;52.006;4.720;2023-04-01T13:06:23;21.90;;;8.77;;
18435;SDS011;9346;52.006;4.720;2023-04-01T13:08:57;15.63;;;8.93;;
18435;SDS011;9346;52.006;4.720;2023-04-01T13:11:36;15.30;;;8.57;;
18435;SDS011;9346;52.006;4.720;2023-04-01T13:14:21;17.83;;;8.93;;
18435;SDS011;9346;52.006;4.720;2023-04-01T13:17:03;16.10;;;7.87;;
18435;SDS011;9346;52.006;4.720;2023-04-01T13:19:40;21.90;;;8.50;;
18435;SDS011;9346;52.006;4.720;2023-04-01T13:22:17;10.87;;;6.77;;
18435;SDS011;9346;52.006;4.720;2023-04-01T13:24:51;15.83;;;8.07;;
18435;SDS011;9346;52.006;4.720;2023-04-01T13:27:30;19.73;;;8.00;;
18435;SDS011;9346;52.006;4.720;2023-04-01T13:30:04;18.90;;;7.37;;
18435;SDS011;9346;52.006;4.720;2023-04-01T13:32:50;19.00;;;8.03;;
18435;SDS011;9346;52.006;4.720;2023-04-01T13:35:29;16.43;;;7.70;;
18435;SDS011;9346;52.006;4.720;2023-04-01T13:38:08;15.23;;;7.50;;
18435;SDS011;9346;52.006;4.720;2023-04-01T13:40:49;15.67;;;7.17;;
18435;SDS011;9346;52.006;4.720;2023-04-01T13:43:28;16.87;;;7.83;;
18435;SDS011;9346;52.006;4.720;2023-04-01T13:46:09;22.87;;;8.30;;
18435;SDS011;9346;52.006;4.720;2023-04-01T13:48:58;22.53;;;8.03;;
18435;SDS011;9346;52.006;4.720;2023-04-01T13:58:02;11.13;;;6.27;;
18435;SDS011;9346;52.006;4.720;2023-04-01T14:00:42;19.60;;;7.03;;
18435;SDS011;9346;52.006;4.720;2023-04-01T14:03:28;10.03;;;5.83;;
18435;SDS011;9346;52.006;4.720;2023-04-01T14:06:04;12.47;;;6.23;;
18435;SDS011;9346;52.006;4.720;2023-04-01T14:08:42;13.10;;;5.67;;
18435;SDS011;9346;52.006;4.720;2023-04-01T14:11:25;8.97;;;5.60;;
18435;SDS011;9346;52.006;4.720;2023-04-01T14:14:04;8.43;;;5.27;;
18435;SDS011;9346;52.006;4.720;2023-04-01T14:16:50;20.27;;;5.90;;
18435;SDS011;9346;52.006;4.720;2023-04-01T14:19:29;12.10;;;5.50;;
18435;SDS011;9346;52.006;4.720;2023-04-01T14:22:13;14.57;;;6.67;;
18435;SDS011;9346;52.006;4.720;2023-04-01T14:24:56;10.37;;;5.67;;
18435;SDS011;9346;52.006;4.720;2023-04-01T14:27:48;17.27;;;5.97;;
18435;SDS011;9346;52.006;4.720;2023-04-01T14:33:18;12.40;;;5.37;;
18435;SDS011;9346;52.006;4.720;2023-04-01T14:35:55;12.37;;;5.50;;
18435;SDS011;9346;52.006;4.720;2023-04-01T14:38:39;13.33;;;5.53;;
18435;SDS011;9346;52.006;4.720;2023-04-01T14:41:17;7.07;;;4.90;;
18435;SDS011;9346;52.006;4.720;2023-04-01T14:43:52;9.73;;;4.63;;
18435;SDS011;9346;52.006;4.720;2023-04-01T14:46:47;12.37;;;5.20;;
18435;SDS011;9346;52.006;4.720;2023-04-01T14:49:30;10.20;;;5.33;;
18435;SDS011;9346;52.006;4.720;2023-04-01T14:52:03;7.20;;;4.93;;
18435;SDS011;9346;52.006;4.720;2023-04-01T14:54:36;8.80;;;4.83;;
18435;SDS011;9346;52.006;4.720;2023-04-01T14:57:09;8.37;;;4.97;;
18435;SDS011;9346;52.006;4.720;2023-04-01T14:59:45;14.97;;;6.17;;
18435;SDS011;9346;52.006;4.720;2023-04-01T15:02:28;8.60;;;4.87;;
18435;SDS011;9346;52.006;4.720;2023-04-01T15:05:07;8.77;;;4.63;;
18435;SDS011;9346;52.006;4.720;2023-04-01T15:07:50;7.80;;;4.10;;
18435;SDS011;9346;52.006;4.720;2023-04-01T15:10:32;9.93;;;4.70;;
18435;SDS011;9346;52.006;4.720;2023-04-01T15:13:29;6.10;;;4.20;;
18435;SDS011;9346;52.006;4.720;2023-04-01T15:16:13;8.07;;;4.07;;
18435;SDS011;9346;52.006;4.720;2023-04-01T15:18:50;8.67;;;4.80;;
18435;SDS011;9346;52.006;4.720;2023-04-01T15:21:31;8.57;;;5.33;;
18435;SDS011;9346;52.006;4.720;2023-04-01T15:24:16;8.17;;;5.50;;
18435;SDS011;9346;52.006;4.720;2023-04-01T15:26:54;7.40;;;4.87;;
18435;SDS011;9346;52.006;4.720;2023-04-01T15:29:38;8.73;;;5.60;;
18435;SDS011;9346;52.006;4.720;2023-04-01T15:32:23;9.93;;;4.53;;
18435;SDS011;9346;52.006;4.720;2023-04-01T15:34:56;8.57;;;5.90;;
18435;SDS011;9346;52.006;4.720;2023-04-01T15:37:33;11.17;;;5.63;;
18435;SDS011;9346;52.006;4.720;2023-04-01T15:40:11;8.93;;;5.97;;
18435;SDS011;9346;52.006;4.720;2023-04-01T15:42:50;10.87;;;6.30;;
18435;SDS011;9346;52.006;4.720;2023-04-01T15:45:31;10.30;;;6.63;;
18435;SDS011;9346;52.006;4.720;2023-04-01T15:48:10;15.13;;;8.73;;
18435;SDS011;9346;52.006;4.720;2023-04-01T15:51:01;12.17;;;7.23;;
18435;SDS011;9346;52.006;4.720;2023-04-01T15:56:52;12.17;;;6.17;;
18435;SDS011;9346;52.006;4.720;2023-04-01T15:59:35;9.53;;;5.57;;
18435;SDS011;9346;52.006;4.720;2023-04-01T16:02:15;11.97;;;6.37;;
18435;SDS011;9346;52.006;4.720;2023-04-01T16:04:52;11.60;;;5.70;;
18435;SDS011;9346;52.006;4.720;2023-04-01T16:07:37;10.93;;;5.83;;
18435;SDS011;9346;52.006;4.720;2023-04-01T16:10:29;6.83;;;4.30;;
18435;SDS011;9346;52.006;4.720;2023-04-01T16:13:14;7.07;;;4.97;;
18435;SDS011;9346;52.006;4.720;2023-04-01T16:15:53;6.53;;;3.80;;
18435;SDS011;9346;52.006;4.720;2023-04-01T16:18:40;7.67;;;4.90;;
18435;SDS011;9346;52.006;4.720;2023-04-01T16:21:24;7.67;;;4.67;;
18435;SDS011;9346;52.006;4.720;2023-04-01T16:24:03;9.80;;;5.23;;
18435;SDS011;9346;52.006;4.720;2023-04-01T16:26:39;8.07;;;4.87;;
18435;SDS011;9346;52.006;4.720;2023-04-01T16:29:17;9.23;;;4.73;;
18435;SDS011;9346;52.006;4.720;2023-04-01T16:31:52;10.60;;;5.47;;
18435;SDS011;9346;52.006;4.720;2023-04-01T16:34:30;11.60;;;5.40;;
18435;SDS011;9346;52.006;4.720;2023-04-01T16:37:05;8.63;;;5.10;;
18435;SDS011;9346;52.006;4.720;2023-04-01T16:39:41;13.90;;;5.67;;
18435;SDS011;9346;52.006;4.720;2023-04-01T16:42:19;10.70;;;5.73;;
18435;SDS011;9346;52.006;4.720;2023-04-01T16:44:52;9.27;;;6.10;;
18435;SDS011;9346;52.006;4.720;2023-04-01T16:47:22;10.40;;;5.87;;
18435;SDS011;9346;52.006;4.720;2023-04-01T16:49:54;11.10;;;5.93;;
18435;SDS011;9346;52.006;4.720;2023-04-01T16:55:35;8.13;;;5.70;;
18435;SDS011;9346;52.006;4.720;2023-04-01T16:58:13;10.10;;;5.77;;
18435;SDS011;9346;52.006;4.720;2023-04-01T17:00:47;11.47;;;6.30;;
18435;SDS011;9346;52.006;4.720;2023-04-01T17:03:16;11.47;;;6.27;;
18435;SDS011;9346;52.006;4.720;2023-04-01T17:05:51;8.60;;;5.43;;
18435;SDS011;9346;52.006;4.720;2023-04-01T17:08:33;7.87;;;5.67;;
18435;SDS011;9346;52.006;4.720;2023-04-01T17:11:12;9.13;;;5.80;;
18435;SDS011;9346;52.006;4.720;2023-04-01T17:13:49;7.70;;;5.27;;
18435;SDS011;9346;52.006;4.720;2023-04-01T17:19:20;8.10;;;5.40;;
18435;SDS011;9346;52.006;4.720;2023-04-01T17:21:57;9.47;;;5.17;;
18435;SDS011;9346;52.006;4.720;2023-04-01T17:24:41;8.13;;;5.10;;